createdAt,value
2023-03-05T00:00:23.023Z,8.11
2023-03-05T00:02:50.166Z,8.12
2023-03-05T00:05:17.326Z,8.08
2023-03-05T00:07:44.472Z,8.07
2023-03-05T00:10:21.537Z,8.06
2023-03-05T00:12:48.609Z,8.07
2023-03-05T00:15:15.828Z,8.07
2023-03-05T00:17:42.872Z,8.05
2023-03-05T00:20:14.910Z,8.02
2023-03-05T00:22:41.934Z,8.01
2023-03-05T00:25:09.503Z,8.01
2023-03-05T00:27:36.496Z,8.02
2023-03-05T00:30:04.360Z,8.02
2023-03-05T00:32:31.555Z,8.00
2023-03-05T00:34:58.707Z,7.97
2023-03-05T00:37:25.887Z,7.94
2023-03-05T00:39:52.952Z,7.92
2023-03-05T00:42:20.006Z,7.92
2023-03-05T00:44:47.074Z,7.93
2023-03-05T00:47:14.250Z,7.93
2023-03-05T00:49:41.306Z,7.92
2023-03-05T00:52:08.456Z,7.90
2023-03-05T00:54:35.517Z,7.90
2023-03-05T00:57:02.732Z,7.91
2023-03-05T00:59:33.443Z,7.89
2023-03-05T01:02:00.507Z,7.89
2023-03-05T01:04:27.507Z,7.90
2023-03-05T01:06:54.573Z,7.89
2023-03-05T01:09:22.301Z,7.86
2023-03-05T01:11:49.420Z,7.85
2023-03-05T01:14:16.598Z,7.82
2023-03-05T01:16:43.679Z,7.81
2023-03-05T01:19:10.683Z,7.81
2023-03-05T01:21:37.732Z,7.79
2023-03-05T01:24:05.102Z,7.78
2023-03-05T01:26:32.276Z,7.79
2023-03-05T01:28:59.395Z,7.79
2023-03-05T01:31:26.446Z,7.76
2023-03-05T01:33:54.025Z,7.76
2023-03-05T01:36:21.304Z,7.73
2023-03-05T01:38:48.393Z,7.76
2023-03-05T01:41:16.486Z,7.72
2023-03-05T01:43:44.454Z,7.76
2023-03-05T01:46:22.214Z,7.71
2023-03-05T01:48:52.323Z,7.68
2023-03-05T01:51:20.477Z,7.66
2023-03-05T01:53:47.988Z,7.66
2023-03-05T01:56:15.485Z,7.67
2023-03-05T01:58:42.726Z,7.64
2023-03-05T02:01:10.084Z,7.65
2023-03-05T02:03:37.510Z,7.66
2023-03-05T02:06:04.695Z,7.67
2023-03-05T02:08:31.972Z,7.67
2023-03-05T02:11:00.645Z,7.64
2023-03-05T02:13:29.876Z,7.64
2023-03-05T02:15:58.727Z,7.62
2023-03-05T02:18:25.871Z,7.64
2023-03-05T02:20:55.108Z,7.62
2023-03-05T02:23:23.310Z,7.63
2023-03-05T02:25:50.363Z,7.62
2023-03-05T02:28:17.712Z,7.62
2023-03-05T02:30:44.758Z,7.63
2023-03-05T02:33:13.559Z,7.60
2023-03-05T02:35:40.628Z,7.57
2023-03-05T02:38:07.686Z,7.56
2023-03-05T02:40:34.854Z,7.57
2023-03-05T02:43:01.885Z,7.60
2023-03-05T02:45:28.972Z,7.61
2023-03-05T02:47:56.194Z,7.60
2023-03-05T02:50:23.349Z,7.59
2023-03-05T02:52:50.445Z,7.57
2023-03-05T02:55:17.680Z,7.57
2023-03-05T02:57:44.699Z,7.54
2023-03-05T03:00:12.394Z,7.51
2023-03-05T03:02:39.472Z,7.49
2023-03-05T03:05:07.081Z,7.44
2023-03-05T03:07:36.340Z,7.44
2023-03-05T03:10:04.194Z,7.42
2023-03-05T03:12:31.379Z,7.42
2023-03-05T03:14:58.375Z,7.44
2023-03-05T03:17:25.551Z,7.44
2023-03-05T03:19:52.784Z,7.43
2023-03-05T03:22:19.810Z,7.43
2023-03-05T03:24:46.997Z,7.43
2023-03-05T03:27:14.049Z,7.43
2023-03-05T03:29:41.049Z,7.40
2023-03-05T03:32:08.954Z,7.40
2023-03-05T03:34:35.993Z,7.41
2023-03-05T03:37:03.016Z,7.42
2023-03-05T03:39:30.120Z,7.44
2023-03-05T03:41:57.230Z,7.42
2023-03-05T03:44:24.403Z,7.42
2023-03-05T03:46:51.879Z,7.38
2023-03-05T03:49:21.252Z,7.34
2023-03-05T03:51:48.749Z,7.36
2023-03-05T03:54:16.441Z,7.37
2023-03-05T03:56:43.450Z,7.39
2023-03-05T03:59:10.555Z,7.39
2023-03-05T04:01:38.043Z,7.42
2023-03-05T04:04:05.432Z,7.40
2023-03-05T04:06:33.429Z,7.37
2023-03-05T04:09:00.641Z,7.31
2023-03-05T04:11:27.578Z,7.29
2023-03-05T04:13:54.642Z,7.21
2023-03-05T04:16:21.529Z,7.21
2023-03-05T04:18:48.398Z,7.20
2023-03-05T04:21:15.399Z,7.23
2023-03-05T04:23:42.257Z,7.23
2023-03-05T04:26:09.238Z,7.22
2023-03-05T04:28:36.482Z,7.24
2023-03-05T04:31:04.229Z,7.26
2023-03-05T04:33:31.248Z,7.27
2023-03-05T04:35:58.200Z,7.24
2023-03-05T04:38:25.165Z,7.21
2023-03-05T04:40:52.078Z,7.17
2023-03-05T04:43:18.968Z,7.20
2023-03-05T04:45:45.892Z,7.24
2023-03-05T04:48:14.970Z,7.25
2023-03-05T04:50:41.972Z,7.26
2023-03-05T04:53:08.888Z,7.29
2023-03-05T04:55:35.796Z,7.28
2023-03-05T04:58:03.052Z,7.28
2023-03-05T05:00:29.944Z,7.27
2023-03-05T05:02:56.900Z,7.27
2023-03-05T05:05:25.484Z,7.27
2023-03-05T05:07:55.626Z,7.31
2023-03-05T05:10:22.591Z,7.29
2023-03-05T05:12:49.410Z,7.26
2023-03-05T05:15:16.339Z,7.25
2023-03-05T05:17:43.211Z,7.25
2023-03-05T05:20:11.744Z,7.25
2023-03-05T05:22:38.870Z,7.22
2023-03-05T05:25:05.982Z,7.15
2023-03-05T05:27:33.236Z,7.14
2023-03-05T05:30:00.917Z,7.16
2023-03-05T05:32:27.809Z,7.18
2023-03-05T05:34:56.347Z,7.15
2023-03-05T05:37:23.513Z,7.17
2023-03-05T05:39:51.347Z,7.17
2023-03-05T05:42:18.730Z,7.20
2023-03-05T05:44:45.642Z,7.24
2023-03-05T05:47:12.615Z,7.24
2023-03-05T05:49:39.900Z,7.23
2023-03-05T05:52:07.149Z,7.21
2023-03-05T05:54:34.261Z,7.17
2023-03-05T05:57:01.168Z,7.17
2023-03-05T05:59:28.132Z,7.14
2023-03-05T06:01:55.101Z,7.12
2023-03-05T06:04:22.159Z,7.10
2023-03-05T06:06:49.043Z,7.07
2023-03-05T06:09:15.876Z,7.07
2023-03-05T06:11:42.873Z,7.07
2023-03-05T06:14:11.104Z,7.08
2023-03-05T06:16:38.078Z,7.06
2023-03-05T06:19:05.437Z,7.07
2023-03-05T06:21:32.693Z,7.06
2023-03-05T06:23:59.725Z,7.07
2023-03-05T06:26:26.589Z,7.06
2023-03-05T06:28:53.834Z,7.04
2023-03-05T06:31:23.255Z,7.02
2023-03-05T06:33:50.641Z,7.02
2023-03-05T06:36:20.019Z,7.01
2023-03-05T06:38:48.449Z,7.00
2023-03-05T06:41:17.525Z,7.00
2023-03-05T06:43:45.267Z,6.98
2023-03-05T06:46:12.483Z,6.98
2023-03-05T06:48:39.849Z,6.96
2023-03-05T06:51:12.752Z,6.96
2023-03-05T06:53:39.580Z,6.95
2023-03-05T06:56:06.499Z,6.98
2023-03-05T06:58:33.347Z,6.98
2023-03-05T07:01:00.388Z,6.97
2023-03-05T07:03:27.283Z,6.96
2023-03-05T07:05:54.144Z,6.96
2023-03-05T07:08:23.108Z,6.95
2023-03-05T07:10:49.986Z,6.97
2023-03-05T07:13:16.976Z,6.98
2023-03-05T07:15:44.035Z,6.98
2023-03-05T07:18:10.921Z,6.99
2023-03-05T07:20:37.898Z,7.00
2023-03-05T07:23:04.930Z,7.02
2023-03-05T07:25:32.340Z,7.05
2023-03-05T07:27:59.278Z,7.04
2023-03-05T07:30:26.144Z,7.02
2023-03-05T07:32:53.045Z,6.99
2023-03-05T07:35:20.005Z,6.96
2023-03-05T07:37:47.121Z,6.94
2023-03-05T07:40:14.155Z,6.94
2023-03-05T07:42:40.985Z,6.93
2023-03-05T07:45:08.409Z,6.91
2023-03-05T07:47:35.940Z,6.90
2023-03-05T07:50:04.013Z,6.89
2023-03-05T07:52:30.984Z,6.90
2023-03-05T07:54:57.831Z,6.92
2023-03-05T07:57:24.588Z,6.95
2023-03-05T07:59:51.342Z,6.95
2023-03-05T08:02:19.989Z,6.98
2023-03-05T08:04:46.739Z,6.96
2023-03-05T08:07:15.294Z,6.98
2023-03-05T08:09:46.960Z,7.00
2023-03-05T08:12:13.743Z,7.04
2023-03-05T08:14:40.577Z,7.05
2023-03-05T08:17:08.344Z,7.07
2023-03-05T08:19:35.073Z,7.06
2023-03-05T08:22:02.010Z,7.09
2023-03-05T08:24:29.953Z,7.12
2023-03-05T08:26:59.941Z,7.15
2023-03-05T08:29:26.718Z,7.18
2023-03-05T08:31:53.819Z,7.21
2023-03-05T08:34:21.332Z,7.23
2023-03-05T08:36:48.298Z,7.21
2023-03-05T08:39:15.476Z,7.21
2023-03-05T08:41:42.242Z,7.23
2023-03-05T08:44:09.315Z,7.25
2023-03-05T08:46:37.161Z,7.31
2023-03-05T08:49:03.975Z,7.32
2023-03-05T08:51:30.758Z,7.38
2023-03-05T08:53:59.069Z,7.40
2023-03-05T08:56:27.847Z,7.42
2023-03-05T08:58:54.648Z,7.43
2023-03-05T09:01:22.841Z,7.45
2023-03-05T09:03:49.966Z,7.47
2023-03-05T09:06:16.724Z,7.51
2023-03-05T09:08:43.487Z,7.54
2023-03-05T09:11:11.960Z,7.58
2023-03-05T09:13:38.771Z,7.54
2023-03-05T09:16:07.244Z,7.46
2023-03-05T09:18:36.942Z,7.45
2023-03-05T09:21:07.778Z,7.52
2023-03-05T09:23:34.951Z,7.56
2023-03-05T09:26:01.872Z,7.58
2023-03-05T09:28:28.677Z,7.61
2023-03-05T09:30:55.443Z,7.64
2023-03-05T09:33:22.172Z,7.67
2023-03-05T09:35:49.028Z,7.65
2023-03-05T09:38:24.340Z,7.69
2023-03-05T09:40:51.602Z,7.76
2023-03-05T09:43:21.498Z,7.78
2023-03-05T09:45:59.117Z,7.78
2023-03-05T09:48:38.639Z,7.82
2023-03-05T09:51:05.492Z,7.87
2023-03-05T09:53:35.346Z,7.92
2023-03-05T09:56:04.996Z,7.88
2023-03-05T09:58:34.892Z,7.87
2023-03-05T10:01:04.061Z,7.86
2023-03-05T10:03:36.126Z,7.81
2023-03-05T10:06:06.012Z,7.79
2023-03-05T10:08:42.289Z,7.81
2023-03-05T10:11:20.623Z,7.83
2023-03-05T10:13:47.641Z,7.90
2023-03-05T10:16:17.598Z,7.94
2023-03-05T10:18:47.634Z,7.96
2023-03-05T10:21:17.082Z,7.99
2023-03-05T10:23:49.836Z,8.04
2023-03-05T10:26:16.958Z,8.09
2023-03-05T10:28:46.716Z,8.09
2023-03-05T10:31:16.534Z,8.11
2023-03-05T10:33:46.452Z,8.15
2023-03-05T10:36:16.463Z,8.21
2023-03-05T10:38:46.878Z,8.20
2023-03-05T10:41:14.972Z,8.16
2023-03-05T10:43:43.364Z,8.14
2023-03-05T10:46:15.420Z,8.14
2023-03-05T10:48:45.226Z,8.16
2023-03-05T10:51:15.725Z,8.14
2023-03-05T10:53:45.644Z,8.06
2023-03-05T10:56:12.643Z,8.00
2023-03-05T10:58:39.744Z,7.99
2023-03-05T11:01:07.008Z,8.00
2023-03-05T11:03:36.827Z,7.99
2023-03-05T11:06:03.679Z,7.95
2023-03-05T11:08:32.691Z,7.88
2023-03-05T11:11:04.105Z,7.80
2023-03-05T11:13:31.088Z,7.72
2023-03-05T11:15:59.415Z,7.64
2023-03-05T11:18:26.571Z,7.61
2023-03-05T11:21:06.911Z,7.60
2023-03-05T11:23:34.591Z,7.50
2023-03-05T11:26:04.530Z,7.43
2023-03-05T11:28:37.869Z,7.41
2023-03-05T11:31:08.032Z,7.44
2023-03-05T11:33:36.124Z,7.42
2023-03-05T11:36:05.981Z,7.45
2023-03-05T11:38:34.130Z,7.49
2023-03-05T11:41:01.887Z,7.52
2023-03-05T11:43:31.142Z,7.54
2023-03-05T11:46:01.821Z,7.53
2023-03-05T11:48:33.404Z,7.56
2023-03-05T11:51:01.799Z,7.60
2023-03-05T11:53:30.053Z,7.60
2023-03-05T11:56:00.191Z,7.52
2023-03-05T11:58:32.838Z,7.46
2023-03-05T12:01:00.693Z,7.41
2023-03-05T12:03:31.925Z,7.41
2023-03-05T12:06:02.404Z,7.40
2023-03-05T12:08:35.553Z,7.38
2023-03-05T12:11:06.601Z,7.37
2023-03-05T12:13:34.883Z,7.41
2023-03-05T12:16:04.783Z,7.44
2023-03-05T12:18:37.676Z,7.43
2023-03-05T12:21:07.568Z,7.40
2023-03-05T12:23:37.487Z,7.38
2023-03-05T12:26:04.606Z,7.42
2023-03-05T12:28:37.551Z,7.45
2023-03-05T12:31:06.032Z,7.47
2023-03-05T12:33:36.846Z,7.50
2023-03-05T12:36:06.713Z,7.55
2023-03-05T12:38:34.646Z,7.59
2023-03-05T12:41:04.588Z,7.58
2023-03-05T12:43:32.793Z,7.69
2023-03-05T12:46:02.698Z,7.76
2023-03-05T12:48:32.455Z,7.82
2023-03-05T12:50:59.667Z,7.83
2023-03-05T12:53:26.552Z,7.90
2023-03-05T12:55:57.604Z,7.91
2023-03-05T12:58:26.389Z,7.96
2023-03-05T13:01:00.372Z,7.95
2023-03-05T13:03:30.920Z,8.01
2023-03-05T13:05:58.815Z,8.16
2023-03-05T13:08:29.809Z,8.34
2023-03-05T13:10:59.562Z,8.40
2023-03-05T13:13:27.716Z,8.44
2023-03-05T13:15:54.747Z,8.48
2023-03-05T13:18:28.692Z,8.46
2023-03-05T13:20:58.800Z,8.45
2023-03-05T13:23:26.857Z,8.41
2023-03-05T13:25:56.808Z,8.42
2023-03-05T13:28:27.022Z,8.37
2023-03-05T13:30:55.882Z,8.28
2023-03-05T13:33:25.332Z,8.24
2023-03-05T13:35:53.936Z,8.14
2023-03-05T13:38:26.487Z,8.10
2023-03-05T13:40:58.724Z,8.06
2023-03-05T13:43:25.586Z,8.06
2023-03-05T13:45:55.204Z,8.02
2023-03-05T13:48:25.588Z,8.02
2023-03-05T13:50:55.875Z,8.00
2023-03-05T13:53:25.748Z,8.00
2023-03-05T13:55:54.870Z,8.04
2023-03-05T13:58:27.376Z,8.06
2023-03-05T14:01:03.031Z,8.10
2023-03-05T14:03:30.561Z,8.15
2023-03-05T14:05:57.498Z,8.24
2023-03-05T14:08:28.041Z,8.28
2023-03-05T14:10:57.264Z,8.25
2023-03-05T14:13:25.470Z,8.18
2023-03-05T14:15:55.492Z,8.13
2023-03-05T14:18:24.455Z,8.13
2023-03-05T14:20:54.622Z,8.13
2023-03-05T14:23:26.791Z,8.11
2023-03-05T14:26:11.526Z,8.12
2023-03-05T14:28:38.622Z,8.12
2023-03-05T14:31:15.655Z,8.09
2023-03-05T14:33:42.628Z,8.07
2023-03-05T14:36:11.201Z,8.06
2023-03-05T14:38:41.730Z,8.06
2023-03-05T14:41:12.162Z,8.11
2023-03-05T14:43:39.113Z,8.15
2023-03-05T14:46:06.176Z,8.19
2023-03-05T14:48:33.573Z,8.19
2023-03-05T14:51:01.600Z,8.19
2023-03-05T14:53:32.093Z,8.26
2023-03-05T14:56:00.442Z,8.28
2023-03-05T14:58:34.743Z,8.28
2023-03-05T15:01:04.125Z,8.29
2023-03-05T15:03:33.334Z,8.27
2023-03-05T15:06:00.966Z,8.23
2023-03-05T15:08:30.725Z,8.23
2023-03-05T15:10:58.262Z,8.18
2023-03-05T15:13:25.195Z,8.21
2023-03-05T15:15:53.050Z,8.22
2023-03-05T15:18:28.709Z,8.18
2023-03-05T15:20:57.371Z,8.15
2023-03-05T15:23:24.746Z,8.13
2023-03-05T15:25:51.744Z,8.09
2023-03-05T15:28:29.074Z,8.09
2023-03-05T15:30:58.145Z,8.07
2023-03-05T15:33:27.859Z,8.05
2023-03-05T15:35:55.135Z,8.00
2023-03-05T15:38:29.479Z,8.02
2023-03-05T15:40:57.001Z,8.05
2023-03-05T15:43:24.476Z,8.05
2023-03-05T15:45:51.583Z,8.10
2023-03-05T15:48:23.530Z,8.18
2023-03-05T15:50:53.397Z,8.18
2023-03-05T15:53:22.034Z,8.18
2023-03-05T15:55:49.038Z,8.19
2023-03-05T15:58:18.988Z,8.16
2023-03-05T16:00:47.991Z,8.16
2023-03-05T16:03:15.277Z,8.09
2023-03-05T16:05:42.725Z,8.08
2023-03-05T16:08:09.850Z,8.10
2023-03-05T16:10:39.010Z,8.10
2023-03-05T16:13:09.830Z,8.07
2023-03-05T16:15:39.184Z,8.09
2023-03-05T16:18:08.653Z,8.10
2023-03-05T16:20:36.747Z,8.07
2023-03-05T16:23:04.796Z,8.02
2023-03-05T16:25:31.871Z,8.03
2023-03-05T16:27:58.870Z,8.05
2023-03-05T16:30:26.161Z,8.04
2023-03-05T16:32:53.811Z,8.05
2023-03-05T16:35:20.951Z,8.03
2023-03-05T16:37:48.059Z,8.05
2023-03-05T16:40:15.226Z,8.04
2023-03-05T16:42:42.624Z,8.00
2023-03-05T16:45:10.405Z,8.00
2023-03-05T16:47:37.641Z,8.00
2023-03-05T16:50:05.753Z,7.99
2023-03-05T16:52:32.768Z,8.01
2023-03-05T16:54:59.821Z,8.01
2023-03-05T16:57:26.785Z,8.02
2023-03-05T16:59:54.919Z,8.03
2023-03-05T17:02:22.180Z,8.04
2023-03-05T17:04:50.789Z,8.05
2023-03-05T17:07:18.663Z,8.04
2023-03-05T17:09:48.363Z,8.01
2023-03-05T17:12:16.493Z,7.96
2023-03-05T17:14:43.957Z,7.96
2023-03-05T17:17:11.125Z,7.94
2023-03-05T17:19:38.336Z,7.92
2023-03-05T17:22:06.602Z,7.91
2023-03-05T17:24:34.278Z,7.88
2023-03-05T17:27:01.534Z,7.86
2023-03-05T17:29:29.124Z,7.84
2023-03-05T17:31:56.161Z,7.82
2023-03-05T17:34:35.719Z,7.78
2023-03-05T17:37:03.719Z,7.77
2023-03-05T17:39:30.743Z,7.75
2023-03-05T17:41:57.833Z,7.73
2023-03-05T17:44:24.956Z,7.75
2023-03-05T17:46:51.996Z,7.77
2023-03-05T17:49:19.018Z,7.77
2023-03-05T17:51:46.160Z,7.77
2023-03-05T17:54:12.986Z,7.78
2023-03-05T17:56:40.148Z,7.77
2023-03-05T17:59:07.362Z,7.73
2023-03-05T18:01:35.967Z,7.76
2023-03-05T18:04:04.087Z,7.78
2023-03-05T18:06:32.867Z,7.79
2023-03-05T18:09:00.946Z,7.80
2023-03-05T18:11:30.676Z,7.83
2023-03-05T18:13:59.340Z,7.85
2023-03-05T18:16:27.435Z,7.80
2023-03-05T18:18:55.957Z,7.78
2023-03-05T18:21:25.181Z,7.78
2023-03-05T18:23:52.963Z,7.77
2023-03-05T18:26:20.039Z,7.78
2023-03-05T18:28:47.125Z,7.80
2023-03-05T18:31:14.079Z,7.82
2023-03-05T18:33:42.420Z,7.81
2023-03-05T18:36:13.401Z,7.80
2023-03-05T18:38:40.274Z,7.80
2023-03-05T18:41:08.420Z,7.80
2023-03-05T18:43:35.994Z,7.80
2023-03-05T18:46:05.210Z,7.78
2023-03-05T18:48:35.253Z,7.78
2023-03-05T18:51:02.404Z,7.77
2023-03-05T18:53:29.220Z,7.79
2023-03-05T18:55:56.218Z,7.74
2023-03-05T18:58:31.350Z,7.72
2023-03-05T19:00:58.793Z,7.73
2023-03-05T19:03:25.899Z,7.74
2023-03-05T19:05:53.384Z,7.76
2023-03-05T19:08:25.425Z,7.76
2023-03-05T19:10:52.190Z,7.73
2023-03-05T19:13:23.666Z,7.73
2023-03-05T19:15:50.508Z,7.74
2023-03-05T19:18:30.477Z,7.75
2023-03-05T19:20:57.656Z,7.78
2023-03-05T19:23:25.526Z,7.76
2023-03-05T19:25:52.407Z,7.74
2023-03-05T19:28:27.422Z,7.73
2023-03-05T19:30:54.512Z,7.74
2023-03-05T19:33:23.485Z,7.72
2023-03-05T19:35:51.041Z,7.74
2023-03-05T19:38:20.756Z,7.73
2023-03-05T19:40:47.993Z,7.72
2023-03-05T19:43:14.924Z,7.73
2023-03-05T19:45:41.709Z,7.73
2023-03-05T19:48:08.815Z,7.74
2023-03-05T19:50:35.734Z,7.74
2023-03-05T19:53:02.662Z,7.74
2023-03-05T19:55:29.572Z,7.73
2023-03-05T19:57:56.523Z,7.73
2023-03-05T20:00:26.505Z,7.72
2023-03-05T20:02:53.983Z,7.74
2023-03-05T20:05:23.336Z,7.74
2023-03-05T20:07:50.206Z,7.75
2023-03-05T20:10:17.887Z,7.74
2023-03-05T20:12:48.162Z,7.73
2023-03-05T20:15:15.507Z,7.73
2023-03-05T20:17:46.307Z,7.70
2023-03-05T20:20:16.206Z,7.69
2023-03-05T20:22:45.069Z,7.69
2023-03-05T20:25:14.179Z,7.71
2023-03-05T20:27:40.976Z,7.72
2023-03-05T20:30:09.880Z,7.73
2023-03-05T20:32:39.155Z,7.71
2023-03-05T20:35:06.210Z,7.71
2023-03-05T20:37:40.257Z,7.73
2023-03-05T20:40:07.888Z,7.71
2023-03-05T20:42:34.851Z,7.71
2023-03-05T20:45:01.742Z,7.69
2023-03-05T20:47:40.706Z,7.69
2023-03-05T20:50:10.148Z,7.70
2023-03-05T20:52:37.832Z,7.71
2023-03-05T20:55:05.654Z,7.72
2023-03-05T20:57:32.460Z,7.71
2023-03-05T21:00:00.558Z,7.73
2023-03-05T21:02:27.850Z,7.76
2023-03-05T21:04:54.755Z,7.76
2023-03-05T21:07:21.645Z,7.78
2023-03-05T21:09:48.602Z,7.77
2023-03-05T21:12:15.425Z,7.76
2023-03-05T21:14:42.475Z,7.74
2023-03-05T21:17:09.777Z,7.74
2023-03-05T21:19:37.733Z,7.73
2023-03-05T21:22:04.599Z,7.71
2023-03-05T21:24:42.873Z,7.68
2023-03-05T21:27:09.909Z,7.66
2023-03-05T21:29:36.924Z,7.68
2023-03-05T21:32:04.765Z,7.67
2023-03-05T21:34:32.218Z,7.65
2023-03-05T21:36:59.168Z,7.64
2023-03-05T21:39:25.943Z,7.68
2023-03-05T21:41:52.854Z,7.67
2023-03-05T21:44:19.904Z,7.67
2023-03-05T21:46:46.728Z,7.68
2023-03-05T21:49:13.568Z,7.68
2023-03-05T21:51:51.429Z,7.67
2023-03-05T21:54:18.308Z,7.66
2023-03-05T21:56:48.481Z,7.66
2023-03-05T21:59:17.892Z,7.66
2023-03-05T22:01:46.990Z,7.64
2023-03-05T22:04:20.398Z,7.64
2023-03-05T22:06:53.582Z,7.63
2023-03-05T22:09:23.285Z,7.59
2023-03-05T22:11:50.482Z,7.53
2023-03-05T22:14:18.118Z,7.54
2023-03-05T22:16:46.261Z,7.53
2023-03-05T22:19:14.525Z,7.54
2023-03-05T22:21:43.509Z,7.57
2023-03-05T22:24:11.403Z,7.59
2023-03-05T22:26:39.829Z,7.58
2023-03-05T22:29:08.924Z,7.57
2023-03-05T22:31:35.784Z,7.57
2023-03-05T22:34:03.418Z,7.56
2023-03-05T22:36:31.883Z,7.56
2023-03-05T22:38:58.789Z,7.53
2023-03-05T22:41:25.644Z,7.53
2023-03-05T22:43:52.605Z,7.52
2023-03-05T22:46:20.777Z,7.51
2023-03-05T22:48:48.196Z,7.48
2023-03-05T22:51:16.257Z,7.45
2023-03-05T22:53:43.251Z,7.42
2023-03-05T22:56:12.247Z,7.39
2023-03-05T22:58:39.121Z,7.37
2023-03-05T23:01:09.107Z,7.31
2023-03-05T23:03:36.094Z,7.28
2023-03-05T23:06:02.991Z,7.27
2023-03-05T23:08:29.844Z,7.26
2023-03-05T23:11:00.481Z,7.21
2023-03-05T23:13:33.860Z,7.22
2023-03-05T23:16:00.739Z,7.21
2023-03-05T23:18:27.598Z,7.22
2023-03-05T23:20:54.704Z,7.20
2023-03-05T23:23:21.631Z,7.20
2023-03-05T23:25:50.546Z,7.18
2023-03-05T23:28:17.845Z,7.15
2023-03-05T23:30:44.729Z,7.15
2023-03-05T23:33:14.791Z,7.13
2023-03-05T23:35:48.902Z,7.09
2023-03-05T23:38:15.969Z,7.06
2023-03-05T23:40:44.400Z,7.06
2023-03-05T23:43:11.822Z,7.07
2023-03-05T23:45:40.648Z,7.07
2023-03-05T23:48:07.709Z,7.04
2023-03-05T23:50:35.981Z,7.04
2023-03-05T23:53:03.502Z,7.02
2023-03-05T23:55:33.008Z,7.02
2023-03-05T23:58:00.272Z,6.99
